Manteo, North Carolina
Current Conditions -  °F | °C
As of 9:15 PM on Saturday 25 Oct 2014 (Local Time) from KMQI Reporting Station
Clear Clear  
Wind Chill: 61°   Ceiling: Unl
Heat Index: 61°   Visibility: 10mi
Dew Point: 52°   Wind: 8mph
Humidity: 73%   Direction: 240°WSW
Pressure: 29.86"   Gusts: NA
Location:  35.91°N, 75.68°W
Report Text: KMQI 260115Z AUTO 24007KT 10SM CLR 16/11 A2986 RMK AO2 T01600112
Loading
Personal Weather Stations






























Interactive Weather Map
Tropical Storm Tracking
New forecast layout! Learn more

10-Day Weather Forecast

Advertisements
Track Severe Weather on mobile